sensor_id;sensor_type;location;lat;lon;timestamp;pressure;altitude;pressure_sealevel;temperature;humidity
75219;BME280;63801;49.414;19.474;2023-04-16T00:00:00;93411.66;;;3.81;72.66
75219;BME280;63801;49.414;19.474;2023-04-16T00:02:03;93400.84;;;3.86;72.75
75219;BME280;63801;49.414;19.474;2023-04-16T00:04:03;93402.09;;;3.88;72.45
75219;BME280;63801;49.414;19.474;2023-04-16T00:06:04;93387.66;;;3.81;72.58
75219;BME280;63801;49.414;19.474;2023-04-16T00:08:04;93399.88;;;3.90;72.78
75219;BME280;63801;49.414;19.474;2023-04-16T00:10:05;93406.78;;;3.91;72.47
75219;BME280;63801;49.414;19.474;2023-04-16T00:12:06;93406.00;;;3.91;72.46
75219;BME280;63801;49.414;19.474;2023-04-16T00:14:06;93414.34;;;3.89;72.53
75219;BME280;63801;49.414;19.474;2023-04-16T00:16:06;93416.03;;;3.85;72.45
75219;BME280;63801;49.414;19.474;2023-04-16T00:18:07;93414.94;;;3.78;72.59
75219;BME280;63801;49.414;19.474;2023-04-16T00:20:07;93407.91;;;3.73;72.59
75219;BME280;63801;49.414;19.474;2023-04-16T00:22:08;93408.84;;;3.69;72.40
75219;BME280;63801;49.414;19.474;2023-04-16T00:24:08;93409.78;;;3.64;72.30
75219;BME280;63801;49.414;19.474;2023-04-16T00:26:09;93406.16;;;3.60;72.77
75219;BME280;63801;49.414;19.474;2023-04-16T00:28:09;93404.78;;;3.54;72.58
75219;BME280;63801;49.414;19.474;2023-04-16T00:30:09;93409.13;;;3.50;72.58
75219;BME280;63801;49.414;19.474;2023-04-16T00:32:10;93411.47;;;3.43;72.95
75219;BME280;63801;49.414;19.474;2023-04-16T00:34:10;93416.97;;;3.38;72.89
75219;BME280;63801;49.414;19.474;2023-04-16T00:36:11;93415.56;;;3.32;72.88
75219;BME280;63801;49.414;19.474;2023-04-16T00:38:12;93403.47;;;3.26;72.86
75219;BME280;63801;49.414;19.474;2023-04-16T00:40:12;93411.59;;;3.21;72.74
75219;BME280;63801;49.414;19.474;2023-04-16T00:42:13;93392.78;;;3.08;72.68
75219;BME280;63801;49.414;19.474;2023-04-16T00:44:13;93413.00;;;3.09;72.83
75219;BME280;63801;49.414;19.474;2023-04-16T00:46:15;93410.00;;;3.02;73.00
75219;BME280;63801;49.414;19.474;2023-04-16T00:48:15;93417.53;;;3.00;72.96
75219;BME280;63801;49.414;19.474;2023-04-16T00:50:16;93422.66;;;2.97;73.15
75219;BME280;63801;49.414;19.474;2023-04-16T00:52:16;93428.31;;;2.95;72.87
75219;BME280;63801;49.414;19.474;2023-04-16T00:54:17;93424.69;;;2.91;72.89
75219;BME280;63801;49.414;19.474;2023-04-16T00:56:18;93427.16;;;2.88;73.14
75219;BME280;63801;49.414;19.474;2023-04-16T00:58:18;93429.66;;;2.84;73.18
75219;BME280;63801;49.414;19.474;2023-04-16T01:00:19;93431.38;;;2.80;73.24
75219;BME280;63801;49.414;19.474;2023-04-16T01:02:19;93423.06;;;2.73;73.13
75219;BME280;63801;49.414;19.474;2023-04-16T01:04:20;93428.38;;;2.73;73.41
75219;BME280;63801;49.414;19.474;2023-04-16T01:06:20;93422.56;;;2.71;73.51
75219;BME280;63801;49.414;19.474;2023-04-16T01:08:21;93439.03;;;2.73;73.39
75219;BME280;63801;49.414;19.474;2023-04-16T01:10:22;93439.03;;;2.73;73.50
75219;BME280;63801;49.414;19.474;2023-04-16T01:12:22;93425.84;;;2.68;73.35
75219;BME280;63801;49.414;19.474;2023-04-16T01:14:22;93443.06;;;2.70;73.29
75219;BME280;63801;49.414;19.474;2023-04-16T01:16:23;93438.84;;;2.69;73.40
75219;BME280;63801;49.414;19.474;2023-04-16T01:18:25;93441.81;;;2.68;73.26
75219;BME280;63801;49.414;19.474;2023-04-16T01:20:25;93445.56;;;2.67;73.37
75219;BME280;63801;49.414;19.474;2023-04-16T01:22:28;93447.91;;;2.68;73.30
75219;BME280;63801;49.414;19.474;2023-04-16T01:24:29;93446.50;;;2.71;73.71
75219;BME280;63801;49.414;19.474;2023-04-16T01:26:30;93436.50;;;2.68;73.67
75219;BME280;63801;49.414;19.474;2023-04-16T01:28:30;93445.47;;;2.81;73.50
75219;BME280;63801;49.414;19.474;2023-04-16T01:30:31;93433.38;;;2.75;73.50
75219;BME280;63801;49.414;19.474;2023-04-16T01:32:31;93446.13;;;2.86;73.61
75219;BME280;63801;49.414;19.474;2023-04-16T01:34:32;93457.72;;;2.90;73.51
75219;BME280;63801;49.414;19.474;2023-04-16T01:36:32;93456.63;;;2.91;73.67
75219;BME280;63801;49.414;19.474;2023-04-16T01:38:32;93456.50;;;2.96;73.48
75219;BME280;63801;49.414;19.474;2023-04-16T01:40:33;93450.56;;;2.99;73.61
75219;BME280;63801;49.414;19.474;2023-04-16T01:42:34;93455.25;;;3.02;73.43
75219;BME280;63801;49.414;19.474;2023-04-16T01:44:34;93452.59;;;3.02;73.47
75219;BME280;63801;49.414;19.474;2023-04-16T01:46:36;93457.28;;;3.05;73.61
75219;BME280;63801;49.414;19.474;2023-04-16T01:48:36;93456.53;;;3.05;73.70
75219;BME280;63801;49.414;19.474;2023-04-16T01:50:37;93457.28;;;3.05;73.37
75219;BME280;63801;49.414;19.474;2023-04-16T01:52:37;93458.06;;;3.06;73.41
75219;BME280;63801;49.414;19.474;2023-04-16T01:54:37;93461.53;;;3.06;73.50
75219;BME280;63801;49.414;19.474;2023-04-16T01:56:38;93455.25;;;3.02;73.25
75219;BME280;63801;49.414;19.474;2023-04-16T01:58:38;93459.78;;;3.02;73.48
75219;BME280;63801;49.414;19.474;2023-04-16T02:00:40;93460.41;;;2.99;73.50
75219;BME280;63801;49.414;19.474;2023-04-16T02:02:40;93461.81;;;2.96;73.31
75219;BME280;63801;49.414;19.474;2023-04-16T02:04:44;93466.16;;;2.92;73.48
75219;BME280;63801;49.414;19.474;2023-04-16T02:06:45;93464.91;;;2.90;73.49
75219;BME280;63801;49.414;19.474;2023-04-16T02:08:45;93465.38;;;2.83;73.36
75219;BME280;63801;49.414;19.474;2023-04-16T02:10:47;93466.91;;;2.84;73.55
75219;BME280;63801;49.414;19.474;2023-04-16T02:12:48;93472.09;;;2.81;73.85
75219;BME280;63801;49.414;19.474;2023-04-16T02:14:48;93463.13;;;2.77;73.89
75219;BME280;63801;49.414;19.474;2023-04-16T02:16:49;93467.22;;;2.74;73.71
75219;BME280;63801;49.414;19.474;2023-04-16T02:18:49;93467.00;;;2.70;73.58
75219;BME280;63801;49.414;19.474;2023-04-16T02:20:49;93473.75;;;2.68;73.84
75219;BME280;63801;49.414;19.474;2023-04-16T02:22:50;93473.25;;;2.66;73.69
75219;BME280;63801;49.414;19.474;2023-04-16T02:24:50;93472.78;;;2.64;73.57
75219;BME280;63801;49.414;19.474;2023-04-16T02:26:50;93472.00;;;2.63;73.88
75219;BME280;63801;49.414;19.474;2023-04-16T02:28:51;93475.75;;;2.62;73.79
75219;BME280;63801;49.414;19.474;2023-04-16T02:30:51;93464.94;;;2.59;73.87
75219;BME280;63801;49.414;19.474;2023-04-16T02:32:51;93476.53;;;2.63;73.78
75219;BME280;63801;49.414;19.474;2023-04-16T02:34:52;93472.78;;;2.64;73.92
75219;BME280;63801;49.414;19.474;2023-04-16T02:36:52;93464.81;;;2.64;74.11
75219;BME280;63801;49.414;19.474;2023-04-16T02:38:54;93472.16;;;2.67;73.78
75219;BME280;63801;49.414;19.474;2023-04-16T02:40:54;93476.41;;;2.68;74.07
75219;BME280;63801;49.414;19.474;2023-04-16T02:42:55;93463.09;;;2.68;74.03
75219;BME280;63801;49.414;19.474;2023-04-16T02:44:55;93474.41;;;2.74;74.05
75219;BME280;63801;49.414;19.474;2023-04-16T02:46:55;93471.41;;;2.75;74.00
75219;BME280;63801;49.414;19.474;2023-04-16T02:48:55;93476.16;;;2.78;74.03
75219;BME280;63801;49.414;19.474;2023-04-16T02:50:56;93473.94;;;2.80;73.96
75219;BME280;63801;49.414;19.474;2023-04-16T02:52:56;93473.34;;;2.83;74.10
75219;BME280;63801;49.414;19.474;2023-04-16T02:54:56;93472.25;;;2.84;74.13
75219;BME280;63801;49.414;19.474;2023-04-16T02:56:57;93476.47;;;2.85;73.94
75219;BME280;63801;49.414;19.474;2023-04-16T02:58:57;93476.03;;;2.83;74.05
75219;BME280;63801;49.414;19.474;2023-04-16T03:00:57;93473.34;;;2.83;73.89
75219;BME280;63801;49.414;19.474;2023-04-16T03:02:58;93483.50;;;2.81;73.97
75219;BME280;63801;49.414;19.474;2023-04-16T03:04:58;93469.41;;;2.81;73.69
75219;BME280;63801;49.414;19.474;2023-04-16T03:06:58;93478.81;;;2.78;73.99
75219;BME280;63801;49.414;19.474;2023-04-16T03:08:59;93485.50;;;2.76;73.95
75219;BME280;63801;49.414;19.474;2023-04-16T03:10:59;93483.78;;;2.71;73.86
75219;BME280;63801;49.414;19.474;2023-04-16T03:12:59;93488.31;;;2.70;73.72
75219;BME280;63801;49.414;19.474;2023-04-16T03:15:00;93489.72;;;2.68;74.03
75219;BME280;63801;49.414;19.474;2023-04-16T03:17:00;93488.09;;;2.58;73.88
75219;BME280;63801;49.414;19.474;2023-04-16T03:19:01;93493.56;;;2.62;73.70
75219;BME280;63801;49.414;19.474;2023-04-16T03:21:01;93494.69;;;2.61;74.14
75219;BME280;63801;49.414;19.474;2023-04-16T03:23:01;93498.44;;;2.60;74.03
75219;BME280;63801;49.414;19.474;2023-04-16T03:25:02;93495.00;;;2.59;74.09
75219;BME280;63801;49.414;19.474;2023-04-16T03:27:02;93496.38;;;2.57;74.18
75219;BME280;63801;49.414;19.474;2023-04-16T03:29:02;93493.25;;;2.55;74.21
75219;BME280;63801;49.414;19.474;2023-04-16T03:31:03;93503.38;;;2.53;74.13
75219;BME280;63801;49.414;19.474;2023-04-16T03:33:03;93501.06;;;2.51;74.33
75219;BME280;63801;49.414;19.474;2023-04-16T03:35:04;93502.91;;;2.51;74.35
75219;BME280;63801;49.414;19.474;2023-04-16T03:37:05;93502.44;;;2.49;74.41
75219;BME280;63801;49.414;19.474;2023-04-16T03:39:06;93505.41;;;2.47;74.10
75219;BME280;63801;49.414;19.474;2023-04-16T03:41:06;93515.84;;;2.44;74.16
75219;BME280;63801;49.414;19.474;2023-04-16T03:43:06;93518.31;;;2.40;74.24
75219;BME280;63801;49.414;19.474;2023-04-16T03:45:07;93515.38;;;2.42;74.16
75219;BME280;63801;49.414;19.474;2023-04-16T03:47:08;93519.13;;;2.41;74.43
75219;BME280;63801;49.414;19.474;2023-04-16T03:49:08;93525.06;;;2.38;74.47
75219;BME280;63801;49.414;19.474;2023-04-16T03:51:09;93520.03;;;2.36;74.39
75219;BME280;63801;49.414;19.474;2023-04-16T03:53:09;93516.09;;;2.34;74.26
75219;BME280;63801;49.414;19.474;2023-04-16T03:55:10;93525.16;;;2.33;74.43
75219;BME280;63801;49.414;19.474;2023-04-16T03:57:10;93532.84;;;2.34;74.45
75219;BME280;63801;49.414;19.474;2023-04-16T03:59:10;93531.28;;;2.33;74.53
75219;BME280;63801;49.414;19.474;2023-04-16T04:01:11;93517.25;;;2.19;74.44
75219;BME280;63801;49.414;19.474;2023-04-16T04:03:11;93543.00;;;2.32;74.60
75219;BME280;63801;49.414;19.474;2023-04-16T04:05:12;93545.19;;;2.30;74.62
75219;BME280;63801;49.414;19.474;2023-04-16T04:07:12;93546.09;;;2.25;74.28
75219;BME280;63801;49.414;19.474;2023-04-16T04:09:13;93552.38;;;2.30;74.58
75219;BME280;63801;49.414;19.474;2023-04-16T04:11:14;93557.56;;;2.35;75.03
75219;BME280;63801;49.414;19.474;2023-04-16T04:13:14;93557.44;;;2.40;74.83
75219;BME280;63801;49.414;19.474;2023-04-16T04:15:14;93571.69;;;2.44;74.86
75219;BME280;63801;49.414;19.474;2023-04-16T04:17:15;93567.66;;;2.46;75.02
75219;BME280;63801;49.414;19.474;2023-04-16T04:19:15;93573.78;;;2.47;74.59
75219;BME280;63801;49.414;19.474;2023-04-16T04:21:15;93579.88;;;2.47;74.69
75219;BME280;63801;49.414;19.474;2023-04-16T04:23:17;93581.25;;;2.45;74.60
75219;BME280;63801;49.414;19.474;2023-04-16T04:25:17;93584.72;;;2.45;74.54
75219;BME280;63801;49.414;19.474;2023-04-16T04:27:17;93588.44;;;2.44;74.55
75219;BME280;63801;49.414;19.474;2023-04-16T04:29:18;93593.59;;;2.41;74.39
75219;BME280;63801;49.414;19.474;2023-04-16T04:31:18;93587.00;;;2.38;74.38
75219;BME280;63801;49.414;19.474;2023-04-16T04:33:18;93587.00;;;2.38;74.33
75219;BME280;63801;49.414;19.474;2023-04-16T04:35:19;93587.59;;;2.35;74.60
75219;BME280;63801;49.414;19.474;2023-04-16T04:37:20;93588.38;;;2.36;74.62
75219;BME280;63801;49.414;19.474;2023-04-16T04:39:20;93595.78;;;2.39;74.46
75219;BME280;63801;49.414;19.474;2023-04-16T04:41:21;93596.88;;;2.38;74.52
75219;BME280;63801;49.414;19.474;2023-04-16T04:43:21;93600.19;;;2.43;74.79
75219;BME280;63801;49.414;19.474;2023-04-16T04:45:22;93602.72;;;2.48;74.60
75219;BME280;63801;49.414;19.474;2023-04-16T04:47:25;93605.94;;;2.59;75.03
75219;BME280;63801;49.414;19.474;2023-04-16T04:49:26;93601.47;;;2.68;75.00
75219;BME280;63801;49.414;19.474;2023-04-16T04:51:26;93606.75;;;2.82;75.28
75219;BME280;63801;49.414;19.474;2023-04-16T04:53:27;93608.72;;;2.98;75.11
75219;BME280;63801;49.414;19.474;2023-04-16T04:55:27;93621.34;;;3.15;75.55
75219;BME280;63801;49.414;19.474;2023-04-16T04:57:27;93614.72;;;3.35;75.26
75219;BME280;63801;49.414;19.474;2023-04-16T04:59:27;93612.19;;;3.69;75.93
75219;BME280;63801;49.414;19.474;2023-04-16T05:01:28;93598.84;;;4.26;75.58
75219;BME280;63801;49.414;19.474;2023-04-16T05:03:28;93598.03;;;5.03;74.40
75219;BME280;63801;49.414;19.474;2023-04-16T05:05:29;93603.13;;;5.80;73.30
75219;BME280;63801;49.414;19.474;2023-04-16T05:07:29;93604.81;;;6.52;72.47
75219;BME280;63801;49.414;19.474;2023-04-16T05:09:30;93596.72;;;7.14;71.81
75219;BME280;63801;49.414;19.474;2023-04-16T05:11:32;93594.50;;;7.61;71.34
75219;BME280;63801;49.414;19.474;2023-04-16T05:13:33;93592.53;;;7.94;70.74
75219;BME280;63801;49.414;19.474;2023-04-16T05:15:33;93592.19;;;7.96;69.95
75219;BME280;63801;49.414;19.474;2023-04-16T05:17:33;93597.41;;;7.68;69.78
75219;BME280;63801;49.414;19.474;2023-04-16T05:19:34;93601.09;;;7.51;70.15
75219;BME280;63801;49.414;19.474;2023-04-16T05:21:35;93598.59;;;7.34;70.10
75219;BME280;63801;49.414;19.474;2023-04-16T05:23:35;93608.25;;;7.27;70.61
75219;BME280;63801;49.414;19.474;2023-04-16T05:25:35;93610.59;;;7.16;70.71
75219;BME280;63801;49.414;19.474;2023-04-16T05:27:36;93614.34;;;7.03;70.82
75219;BME280;63801;49.414;19.474;2023-04-16T05:29:36;93614.75;;;6.93;70.79
75219;BME280;63801;49.414;19.474;2023-04-16T05:31:37;93614.28;;;6.70;70.44
75219;BME280;63801;49.414;19.474;2023-04-16T05:33:37;93614.59;;;6.48;70.58
75219;BME280;63801;49.414;19.474;2023-04-16T05:35:37;93616.16;;;6.28;71.07
75219;BME280;63801;49.414;19.474;2023-04-16T05:37:38;93629.00;;;6.14;70.95
75219;BME280;63801;49.414;19.474;2023-04-16T05:39:38;93622.28;;;5.99;70.98
75219;BME280;63801;49.414;19.474;2023-04-16T05:41:38;93622.19;;;5.87;71.29
75219;BME280;63801;49.414;19.474;2023-04-16T05:43:39;93621.72;;;5.76;71.41
75219;BME280;63801;49.414;19.474;2023-04-16T05:45:39;93624.78;;;5.66;71.32
75219;BME280;63801;49.414;19.474;2023-04-16T05:47:40;93626.22;;;5.55;71.41
75219;BME280;63801;49.414;19.474;2023-04-16T05:49:40;93625.44;;;5.46;71.85
75219;BME280;63801;49.414;19.474;2023-04-16T05:51:41;93623.41;;;5.43;71.92
75219;BME280;63801;49.414;19.474;2023-04-16T05:53:41;93636.13;;;5.46;71.89
75219;BME280;63801;49.414;19.474;2023-04-16T05:55:41;93637.88;;;5.42;71.68
75219;BME280;63801;49.414;19.474;2023-04-16T05:57:42;93636.78;;;5.43;71.86
75219;BME280;63801;49.414;19.474;2023-04-16T05:59:42;93630.78;;;5.46;72.38
75219;BME280;63801;49.414;19.474;2023-04-16T06:01:42;93633.78;;;5.53;72.41
75219;BME280;63801;49.414;19.474;2023-04-16T06:03:43;93634.34;;;5.67;72.84
75219;BME280;63801;49.414;19.474;2023-04-16T06:05:44;93644.00;;;5.98;72.87
75219;BME280;63801;49.414;19.474;2023-04-16T06:07:44;93640.38;;;6.31;72.63
75219;BME280;63801;49.414;19.474;2023-04-16T06:09:45;93646.50;;;6.61;72.46
75219;BME280;63801;49.414;19.474;2023-04-16T06:11:45;93646.28;;;6.87;72.03
75219;BME280;63801;49.414;19.474;2023-04-16T06:13:45;93648.56;;;7.18;71.71
75219;BME280;63801;49.414;19.474;2023-04-16T06:15:46;93648.19;;;7.40;71.09
75219;BME280;63801;49.414;19.474;2023-04-16T06:17:47;93633.81;;;7.57;71.15
75219;BME280;63801;49.414;19.474;2023-04-16T06:20:30;93640.94;;;7.86;71.13
75219;BME280;63801;49.414;19.474;2023-04-16T06:22:20;93638.50;;;8.17;70.55
75219;BME280;63801;49.414;19.474;2023-04-16T06:24:21;93641.53;;;8.52;70.15
75219;BME280;63801;49.414;19.474;2023-04-16T06:26:21;93639.59;;;8.77;69.87
75219;BME280;63801;49.414;19.474;2023-04-16T06:28:25;93649.19;;;9.02;69.49
75219;BME280;63801;49.414;19.474;2023-04-16T06:30:25;93647.81;;;9.08;68.99
75219;BME280;63801;49.414;19.474;2023-04-16T06:32:26;93657.16;;;9.26;69.35
75219;BME280;63801;49.414;19.474;2023-04-16T06:34:27;93653.03;;;9.72;69.44
75219;BME280;63801;49.414;19.474;2023-04-16T06:36:27;93655.19;;;10.42;68.92
75219;BME280;63801;49.414;19.474;2023-04-16T06:38:28;93654.53;;;11.14;68.11
75219;BME280;63801;49.414;19.474;2023-04-16T06:40:28;93635.75;;;11.79;66.77
75219;BME280;63801;49.414;19.474;2023-04-16T06:42:28;93650.38;;;12.66;65.97
75219;BME280;63801;49.414;19.474;2023-04-16T06:44:29;93638.22;;;13.35;65.48
75219;BME280;63801;49.414;19.474;2023-04-16T06:46:30;93641.53;;;14.25;64.47
75219;BME280;63801;49.414;19.474;2023-04-16T06:48:31;93640.72;;;15.23;63.40
75219;BME280;63801;49.414;19.474;2023-04-16T06:50:31;93653.09;;;16.00;60.96
75219;BME280;63801;49.414;19.474;2023-04-16T06:52:31;93648.56;;;16.60;60.69
75219;BME280;63801;49.414;19.474;2023-04-16T06:54:32;93641.16;;;16.82;59.97
75219;BME280;63801;49.414;19.474;2023-04-16T06:56:32;93649.34;;;16.72;58.98
75219;BME280;63801;49.414;19.474;2023-04-16T06:58:33;93640.41;;;16.85;58.68
75219;BME280;63801;49.414;19.474;2023-04-16T07:00:33;93640.38;;;16.96;57.41
75219;BME280;63801;49.414;19.474;2023-04-16T07:02:33;93655.19;;;16.81;56.70
75219;BME280;63801;49.414;19.474;2023-04-16T07:04:34;93658.69;;;16.71;56.40
75219;BME280;63801;49.414;19.474;2023-04-16T07:06:34;93658.25;;;16.44;55.32
75219;BME280;63801;49.414;19.474;2023-04-16T07:08:35;93668.25;;;16.01;54.72
75219;BME280;63801;49.414;19.474;2023-04-16T07:10:35;93659.63;;;15.70;56.02
75219;BME280;63801;49.414;19.474;2023-04-16T07:12:35;93670.06;;;15.68;56.18
75219;BME280;63801;49.414;19.474;2023-04-16T07:14:36;93664.25;;;15.70;55.33
75219;BME280;63801;49.414;19.474;2023-04-16T07:16:36;93667.41;;;15.83;54.75
75219;BME280;63801;49.414;19.474;2023-04-16T07:18:37;93667.47;;;16.00;54.97
75219;BME280;63801;49.414;19.474;2023-04-16T07:20:37;93673.78;;;16.36;54.78
75219;BME280;63801;49.414;19.474;2023-04-16T07:22:37;93675.00;;;16.71;53.99
75219;BME280;63801;49.414;19.474;2023-04-16T07:24:38;93675.41;;;17.01;53.84
75219;BME280;63801;49.414;19.474;2023-04-16T07:26:38;93675.38;;;17.19;52.67
75219;BME280;63801;49.414;19.474;2023-04-16T07:28:39;93680.03;;;17.32;52.47
75219;BME280;63801;49.414;19.474;2023-04-16T07:30:39;93682.34;;;17.41;51.60
75219;BME280;63801;49.414;19.474;2023-04-16T07:32:39;93672.63;;;17.36;51.15
75219;BME280;63801;49.414;19.474;2023-04-16T07:34:39;93680.00;;;17.50;50.84
75219;BME280;63801;49.414;19.474;2023-04-16T07:36:40;93674.13;;;17.73;50.25
75219;BME280;63801;49.414;19.474;2023-04-16T07:38:40;93677.56;;;17.91;50.55
75219;BME280;63801;49.414;19.474;2023-04-16T07:40:40;93682.13;;;18.15;50.44
75219;BME280;63801;49.414;19.474;2023-04-16T07:42:41;93671.00;;;18.51;50.31
75219;BME280;63801;49.414;19.474;2023-04-16T07:44:42;93675.47;;;18.85;49.43
75219;BME280;63801;49.414;19.474;2023-04-16T07:46:43;93678.34;;;19.16;49.07
75219;BME280;63801;49.414;19.474;2023-04-16T07:48:43;93674.59;;;19.44;48.51
75219;BME280;63801;49.414;19.474;2023-04-16T07:50:43;93674.25;;;19.76;47.83
75219;BME280;63801;49.414;19.474;2023-04-16T07:52:45;93678.91;;;20.12;47.57
75219;BME280;63801;49.414;19.474;2023-04-16T07:54:45;93678.66;;;20.34;47.81
75219;BME280;63801;49.414;19.474;2023-04-16T07:56:46;93669.88;;;20.46;46.84
75219;BME280;63801;49.414;19.474;2023-04-16T07:58:46;93674.00;;;20.61;46.10
75219;BME280;63801;49.414;19.474;2023-04-16T08:00:46;93670.94;;;20.82;46.31
75219;BME280;63801;49.414;19.474;2023-04-16T08:02:47;93671.75;;;21.06;45.51
75219;BME280;63801;49.414;19.474;2023-04-16T08:04:47;93672.25;;;21.24;44.91
75219;BME280;63801;49.414;19.474;2023-04-16T08:06:47;93664.66;;;21.32;44.47
75219;BME280;63801;49.414;19.474;2023-04-16T08:08:48;93659.50;;;21.57;44.19
75219;BME280;63801;49.414;19.474;2023-04-16T08:10:48;93670.09;;;21.78;43.75
75219;BME280;63801;49.414;19.474;2023-04-16T08:12:48;93665.13;;;21.93;43.51
75219;BME280;63801;49.414;19.474;2023-04-16T08:14:49;93658.59;;;22.07;43.00
75219;BME280;63801;49.414;19.474;2023-04-16T08:16:49;93661.75;;;22.25;43.02
75219;BME280;63801;49.414;19.474;2023-04-16T08:18:50;93660.88;;;22.48;43.40
75219;BME280;63801;49.414;19.474;2023-04-16T08:20:50;93666.94;;;22.75;42.68
75219;BME280;63801;49.414;19.474;2023-04-16T08:22:52;93665.00;;;23.08;42.04
75219;BME280;63801;49.414;19.474;2023-04-16T08:24:53;93671.34;;;23.37;41.42
75219;BME280;63801;49.414;19.474;2023-04-16T08:26:53;93674.59;;;23.64;40.64
75219;BME280;63801;49.414;19.474;2023-04-16T08:28:54;93665.47;;;23.84;40.26
75219;BME280;63801;49.414;19.474;2023-04-16T08:30:54;93668.03;;;24.03;40.57
75219;BME280;63801;49.414;19.474;2023-04-16T08:32:54;93664.50;;;24.19;40.14
75219;BME280;63801;49.414;19.474;2023-04-16T08:34:56;93668.38;;;24.34;39.67
75219;BME280;63801;49.414;19.474;2023-04-16T08:36:57;93667.03;;;24.26;38.72
75219;BME280;63801;49.414;19.474;2023-04-16T08:38:57;93667.19;;;24.06;38.97
75219;BME280;63801;49.414;19.474;2023-04-16T08:41:01;93667.31;;;24.03;38.18
75219;BME280;63801;49.414;19.474;2023-04-16T08:43:04;93665.75;;;24.02;37.18
75219;BME280;63801;49.414;19.474;2023-04-16T08:45:13;93665.59;;;23.93;37.48
75219;BME280;63801;49.414;19.474;2023-04-16T08:47:14;93666.22;;;23.84;37.32
75219;BME280;63801;49.414;19.474;2023-04-16T08:49:16;93674.81;;;23.86;37.27
75219;BME280;63801;49.414;19.474;2023-04-16T08:51:21;93665.09;;;23.82;37.20
75219;BME280;63801;49.414;19.474;2023-04-16T08:56:02;93677.72;;;23.34;36.83
75219;BME280;63801;49.414;19.474;2023-04-16T08:58:17;93678.75;;;23.08;36.86
75219;BME280;63801;49.414;19.474;2023-04-16T09:00:18;93687.09;;;22.68;36.08
75219;BME280;63801;49.414;19.474;2023-04-16T09:02:19;93674.84;;;21.98;36.69
75219;BME280;63801;49.414;19.474;2023-04-16T09:04:20;93688.59;;;21.51;37.29
75219;BME280;63801;49.414;19.474;2023-04-16T09:06:21;93695.06;;;21.18;37.73
75219;BME280;63801;49.414;19.474;2023-04-16T09:08:21;93696.00;;;20.81;38.00
75219;BME280;63801;49.414;19.474;2023-04-16T09:10:22;93695.75;;;20.41;38.14
75219;BME280;63801;49.414;19.474;2023-04-16T09:12:22;93685.28;;;20.02;38.89
75219;BME280;63801;49.414;19.474;2023-04-16T09:14:23;93687.53;;;19.77;39.31
75219;BME280;63801;49.414;19.474;2023-04-16T09:16:24;93688.91;;;19.58;39.41
75219;BME280;63801;49.414;19.474;2023-04-16T09:18:25;93677.34;;;19.40;39.84
75219;BME280;63801;49.414;19.474;2023-04-16T09:20:27;93691.56;;;19.21;39.28
75219;BME280;63801;49.414;19.474;2023-04-16T09:22:27;93691.09;;;18.81;39.32
75219;BME280;63801;49.414;19.474;2023-04-16T09:24:27;93691.72;;;18.45;39.86
75219;BME280;63801;49.414;19.474;2023-04-16T09:26:28;93692.63;;;18.17;40.48
75219;BME280;63801;49.414;19.474;2023-04-16T09:28:43;93695.50;;;17.81;40.12
75219;BME280;63801;49.414;19.474;2023-04-16T09:30:44;93701.03;;;17.49;40.85
75219;BME280;63801;49.414;19.474;2023-04-16T09:32:44;93709.63;;;17.34;41.58
75219;BME280;63801;49.414;19.474;2023-04-16T09:37:15;93701.44;;;17.37;41.89
75219;BME280;63801;49.414;19.474;2023-04-16T09:39:21;93700.66;;;17.40;42.53
75219;BME280;63801;49.414;19.474;2023-04-16T09:41:27;93700.66;;;17.40;42.22
75219;BME280;63801;49.414;19.474;2023-04-16T09:43:28;93708.03;;;17.54;42.89
75219;BME280;63801;49.414;19.474;2023-04-16T09:45:31;93701.78;;;17.53;42.32
75219;BME280;63801;49.414;19.474;2023-04-16T09:47:43;93700.25;;;17.45;42.77
75219;BME280;63801;49.414;19.474;2023-04-16T09:49:43;93685.47;;;17.22;42.53
75219;BME280;63801;49.414;19.474;2023-04-16T09:51:46;93703.41;;;17.23;42.54
75219;BME280;63801;49.414;19.474;2023-04-16T09:53:50;93707.28;;;17.18;42.53
75219;BME280;63801;49.414;19.474;2023-04-16T09:55:55;93712.75;;;17.18;43.08
75219;BME280;63801;49.414;19.474;2023-04-16T09:57:59;93704.94;;;17.27;42.51
75219;BME280;63801;49.414;19.474;2023-04-16T10:00:01;93711.97;;;17.21;42.18
75219;BME280;63801;49.414;19.474;2023-04-16T10:02:03;93710.41;;;17.10;42.41
75219;BME280;63801;49.414;19.474;2023-04-16T10:04:05;93701.84;;;17.00;42.54
75219;BME280;63801;49.414;19.474;2023-04-16T10:08:11;93710.78;;;17.22;42.53
75219;BME280;63801;49.414;19.474;2023-04-16T10:10:12;93705.72;;;17.38;42.74
75219;BME280;63801;49.414;19.474;2023-04-16T10:12:13;93701.03;;;17.49;42.02
75219;BME280;63801;49.414;19.474;2023-04-16T10:14:13;93701.81;;;17.36;41.16
75219;BME280;63801;49.414;19.474;2023-04-16T10:16:14;93708.88;;;17.12;41.33
75219;BME280;63801;49.414;19.474;2023-04-16T10:18:14;93710.44;;;16.99;41.50
75219;BME280;63801;49.414;19.474;2023-04-16T10:20:15;93708.84;;;16.87;41.38
75219;BME280;63801;49.414;19.474;2023-04-16T10:22:16;93703.03;;;16.85;41.54
75219;BME280;63801;49.414;19.474;2023-04-16T10:24:17;93704.97;;;16.85;41.83
75219;BME280;63801;49.414;19.474;2023-04-16T10:26:20;93701.84;;;16.86;42.03
75219;BME280;63801;49.414;19.474;2023-04-16T10:28:21;93701.06;;;16.96;41.92
75219;BME280;63801;49.414;19.474;2023-04-16T10:30:22;93689.41;;;16.99;42.04
75219;BME280;63801;49.414;19.474;2023-04-16T10:32:24;93696.41;;;17.15;42.31
75219;BME280;63801;49.414;19.474;2023-04-16T10:34:27;93702.25;;;17.20;41.88
75219;BME280;63801;49.414;19.474;2023-04-16T10:36:28;93696.00;;;17.30;42.67
75219;BME280;63801;49.414;19.474;2023-04-16T10:38:30;93680.41;;;17.38;42.07
75219;BME280;63801;49.414;19.474;2023-04-16T10:40:31;93698.28;;;17.53;42.22
75219;BME280;63801;49.414;19.474;2023-04-16T10:42:31;93701.78;;;17.53;41.69